Hovedside
METAR-TAF:

METAR-TAF

Lufthavner :

Kunming, Kina

Kunming Changshui internasjonale lufthavn

breddegrad: 25-01N, lengdegrad: 102-41E, høyde over havet: 1892 m

Gjeldene værobservasjon

Denne rapporten ble laget for 26 minutter siden, klokken 19:00 UTC
Vind 12 kt fra Sør-sørvest
Temperatur 7°C
Luftfuktighet 87%
Trykk 1020 hPa
Sikt 10 km eller mer
ingen skyer under 1500 m og ingen bygeskyer

METAR: ZPPP 191900Z 21006MPS CAVOK 07/05 Q1020 NOSIG

Tid: 03:26 (19:26 UTC)

Varsel

Denne rapporten ble laget for 6 timer og 12 minutter siden, klokken 13:14 UTC
Varsel gyldig fra 19. klokken 18 UTC til 20. klokken 18 UTC
Vind 10 kt fra Sørvest
Sikt 10 km eller mer
Spredte skyer i en høyde av 2600 ft
Blir
fra 20. klokken 03 UTC til 20. klokken 04 UTC
Vind 19 kt fra Sørvest med vindkast opp mot 31 kt
Blir
fra 20. klokken 11 UTC til 20. klokken 12 UTC
Vind 10 kt fra Sørvest

TAF: ZPPP 191314Z 1918/2018 22005MPS 9999 SCT026 TX17/2008Z TN06/1923Z BECMG 2003/2004 22010G16MPS BECMG 2011/2012 22005MPS

Værobservasjoner og værvarsel for over 4000 flyplasser (METAR- og TAF-rapporter).

Tilgjengelige stasjoner er representert av de røde og gule prikkene på kartet.

Hold musepekeren over prikken for å se navnet på stasjonen.

Klikk så for å se værobservasjoner og -varsler.

For å forandre kartet kan du klikke på den grønne knappen med svart kryss for å zoome inn, på den grønne knappen med strek for å zoome ut, eller på de grønne pilene for å se tilstøtende kart.


METAR-TAF: